Florence, KY (41042)

5:31 PM EST on February 07, 2016 (GMT -0500)
K4JRU | | Change Station
CLOSE
Current Station
Personal Weather Station
Location: Independence, KY
Elevation: 892 ft
Nearby Weather Stations

Elev 892 ft 38.97 °N, 84.60 °W | Updated 25 minutes ago

Partly Cloudy
Partly Cloudy
51.9 °F
Feels Like 51.9 °F
N
5.0
Wind Variable Wind from SW
Gusts 15.0 mph

Today
High -- | Low -- °F
--% Chance of Precip.
Yesterday
High -- | Low -- °F
Precip. -- in
Pressure 29.91 in
Visibility 10.0 miles
Clouds Mostly Cloudy 25000 ft
Dew Point 28 °F
Humidity 39%
Rainfall Not available.
Snow Depth Not available.
7:39 AM 6:06 PM
Waning Crescent, 1% visible
METAR KCVG 072052Z 20014G20KT 10SM BKN250 10/M06 A2990 RMK AO2 SLP126 T01001061 56038
Pressure 29.91 in
Visibility 10.0 miles
Clouds Mostly Cloudy 25000 ft
Dew Point 28 °F
Humidity 39%
Rainfall Not available.
Snow Depth Not available.
7:39 AM 6:06 PM
Waning Crescent, 1% visible
METAR KCVG 072052Z 20014G20KT 10SM BKN250 10/M06 A2990 RMK AO2 SLP126 T01001061 56038

10-Day Weather Forecast

Almanac

Astronomy

Feb. 07, 2016 Rise Set
Actual Time
Civil Twilight
Nautical Twilight
Astronomical Twilight
Moon
Length of Visible Light
Length of Day
Tomorrow will be .
, % of the Moon is Illuminated

Today's Extremes

State Highs State Lows

Community

WunderPhotos

Upload Photos

1,891,318 photos uploaded!

WunderBlog® & News

Nearby

Air Quality

  Air Quality AQ Index Pollutant
Not available.

Snow Depth

Station Depth Elevation

Earthquake Activity

City Distance Mag. Time & Date
Minimum magnitude displayed is 2.5.

Coastal Water Temperatures

Place Temperature

Stations

Nearby Weather Stations

Station Location Temp. Windchill Dew Point Humidity Wind Precip. Elev Updated Type
                   

Watches & Warnings

There are currently no watches in effect.